Latest Coastal Weather Observations for Gold Coast Seaway

IDQ60701

Issued at 9:21 pm EST Saturday 3 December 2016 (issued every 10 minutes, with the page automatically refreshed every 10 minutes)

About coastal observations | Map of coastal stations | Coastal observations for QLD | Marine services | Other Formats
Station Details ID: 040764 Name: GOLD COAST SEAWAY Lat: -27.94 Lon: 153.43 Height: 2.98 m
Data from the previous 72 hours. | See also: Recent months at Gold Coast Seaway
Date/Time
EST
Temp
°C
Wind Pressure Rain since
9am
mm
Weather Cloud Vis
km
Sea
Height
m
Swell
Dir  Spd
kts
Gust
kts
hPa Trend Height
m
Period
s
Dir
03/09:00pm 22.0 SSE 8 11 1018.1 - 1.6 - - - - - - -
03/08:30pm 22.9 SSW 10 13 1017.6 - 1.6 - - - - - - -
03/08:13pm 22.8 W 6 8 1016.7 - 1.6 - - - - - - -
03/08:00pm 22.5 NE 12 19 1014.7 - 1.6 - - - - - - -
03/07:30pm 22.1 NE 21 27 1013.3 - 1.4 - - - - - - -
03/07:29pm 22.2 NE 20 27 1013.7 - 1.4 - - - - - - -
03/07:19pm 23.2 NNE 11 16 1015.5 - 1.4 - - - - - - -
03/07:00pm 23.8 W 8 11 1017.5 - 0.6 - - - - - - -
03/06:30pm 23.7 SSW 8 14 1017.6 - 0.0 - - - - - - -
03/06:18pm 23.5 NE 9 14 1016.2 - 0.0 - - - - - - -
03/06:00pm 23.2 SE 8 11 1014.2 - 0.0 - - - - - - -
03/05:44pm 23.5 NNE 11 18 1014.0 - 0.0 - - - - - - -
03/05:30pm 23.3 NNE 16 19 1011.9 - 0.0 - - - - - - -
03/05:29pm 23.2 NNE 15 19 1011.8 - 0.0 - - - - - - -
03/05:00pm 23.3 NE 8 9 1013.0 - 0.0 - - - - - - -
03/04:30pm 22.7 ENE 12 14 1011.6 - 0.0 - - - - - - -
03/04:00pm 23.1 NE 15 17 1011.8 - 0.0 - - - - - - -
03/03:30pm 23.6 NNE 14 17 1011.6 - 0.0 - - - - - - -
03/03:00pm 24.5 NNE 17 19 1011.2 - 0.0 - - - - - - -
03/02:30pm 27.0 NNE 16 18 1012.2 - 0.0 - - - - - - -
03/02:00pm 26.2 NNE 18 20 1011.9 - 0.0 - - - - - - -
03/01:30pm 26.7 NNE 17 19 1012.6 - 0.0 - - - - - - -
03/01:00pm 26.5 NNE 16 18 1012.9 - 0.0 - - - - - - -
03/12:30pm 26.9 NNE 16 18 1013.3 - 0.0 - - - - - - -
03/12:00pm 26.5 NNE 15 17 1013.5 - 0.0 - - - - - - -
03/11:30am 26.2 NNE 15 16 1013.9 - 0.0 - - - - - - -
03/11:00am 26.7 NNE 14 16 1014.2 - 0.0 - - - - - - -
03/10:30am 25.6 NNE 14 15 1014.6 - 0.0 - - - - - - -
03/10:00am 24.2 N 11 14 1015.0 - 0.0 - - - - - - -
03/09:30am 24.5 NNE 8 10 1015.2 - 0.0 - - - - - - -
03/09:00am 24.5 N 9 10 1015.1 - 0.0 - - - - - - -
03/08:30am 23.4 N 8 9 1015.3 - 0.0 - - - - - - -
03/08:00am 22.9 N 6 7 1015.2 - 0.0 - - - - - - -
03/07:30am 22.8 N 5 6 1015.1 - 0.0 - - - - - - -
03/07:00am 22.4 N 5 5 1014.9 - 0.0 - - - - - - -
03/06:30am 22.1 N 6 7 1014.3 - 0.0 - - - - - - -
03/06:00am 22.0 N 5 6 1014.1 - 0.0 - - - - - - -
03/05:30am 22.1 N 5 6 1013.8 - 0.0 - - - - - - -
03/05:00am 21.7 N 5 6 1013.3 - 0.0 - - - - - - -
03/04:30am 21.6 N 6 7 1012.9 - 0.0 - - - - - - -
03/04:00am 21.9 N 7 8 1012.5 - 0.0 - - - - - - -
03/03:30am 22.0 N 8 9 1012.2 - 0.0 - - - - - - -
03/03:00am 21.8 N 5 8 1012.2 - 0.0 - - - - - - -
03/02:30am 21.8 N 5 6 1012.4 - 0.0 - - - - - - -
03/02:00am 21.5 NNE 5 6 1012.5 - 0.0 - - - - - - -
03/01:30am 21.8 N 4 5 1012.8 - 0.0 - - - - - - -
03/01:00am 21.3 NNE 4 5 1012.8 - 0.0 - - - - - - -
03/12:30am 21.9 NNE 5 6 1013.0 - 0.0 - - - - - - -
03/12:00am 21.3 NNE 4 5 1013.4 - 0.0 - - - - - - -
 
Date/Time
EST
Temp
°C
Wind Pressure Rain since
9am
mm
Weather Cloud Vis
km
Sea
Height
m
Swell
Dir  Spd
kts
Gust
kts
hPa Trend Height
m
Period
s
Dir
02/11:30pm 21.3 NNE 4 5 1013.4 - 0.0 - - - - - - -
02/11:00pm 21.4 NNE 5 6 1013.4 - 0.0 - - - - - - -
02/10:30pm 21.1 N 4 5 1013.5 - 0.0 - - - - - - -
02/10:00pm 21.6 NNE 5 7 1013.3 - 0.0 - - - - - - -
02/09:30pm 22.4 N 5 11 1013.2 - 0.0 - - - - - - -
02/09:00pm 22.6 NNE 17 20 1012.0 - 0.0 - - - - - - -
02/08:58pm 22.6 NNE 17 20 1012.1 - 0.0 - - - - - - -
02/08:30pm 23.2 SSW 6 10 1013.9 - 0.0 - - - - - - -
02/08:00pm 22.1 N 9 13 1012.6 - 0.0 - - - - - - -
02/07:30pm 22.0 N 8 10 1012.5 - 0.0 - - - - - - -
02/07:00pm 21.9 N 9 11 1011.7 - 0.0 - - - - - - -
02/06:30pm 22.3 N 12 14 1011.3 - 0.0 - - - - - - -
02/06:00pm 22.6 N 13 15 1010.8 - 0.0 - - - - - - -
02/05:30pm 22.8 N 13 16 1010.3 - 0.0 - - - - - - -
02/05:00pm 23.3 N 13 16 1009.9 - 0.0 - - - - - - -
02/04:30pm 23.8 N 14 16 1009.6 - 0.0 - - - - - - -
02/04:00pm 24.2 N 15 17 1009.4 - 0.0 - - - - - - -
02/03:30pm 24.4 N 17 19 1009.3 - 0.0 - - - - - - -
02/03:00pm 24.5 N 17 19 1009.5 - 0.0 - - - - - - -
02/02:30pm 24.9 N 17 20 1009.7 - 0.0 - - - - - - -
02/02:00pm 24.7 NNE 19 21 1009.8 - 0.0 - - - - - - -
02/01:30pm 25.0 NNE 19 21 1010.2 - 0.0 - - - - - - -
02/01:00pm 26.1 NNE 18 21 1010.0 - 0.0 - - - - - - -
02/12:30pm 25.6 NNE 18 20 1010.3 - 0.0 - - - - - - -
02/12:00pm 26.2 NNE 19 21 1010.4 - 0.0 - - - - - - -
02/11:30am 26.1 NNE 17 19 1010.8 - 0.0 - - - - - - -
02/11:00am 25.9 NE 15 17 1011.1 - 0.0 - - - - - - -
02/10:30am 26.4 NNE 13 16 1011.4 - 0.0 - - - - - - -
02/10:00am 26.1 NNE 14 16 1011.5 - 0.0 - - - - - - -
02/09:30am 26.6 NNE 10 14 1011.8 - 0.0 - - - - - - -
02/09:00am 26.4 NNW 8 13 1012.0 - 8.6 Recent precip. - - - - - -
02/08:30am 25.8 NNW 10 15 1012.2 - 8.6 - - - - - - -
02/08:00am 25.3 NNW 10 14 1012.1 - 8.4 - - - - - - -
02/07:30am 24.3 NNW 9 15 1012.2 - 8.4 - - - - - - -
02/07:00am 23.4 NNW 11 15 1011.9 - 8.4 - - - - - - -
02/06:30am 22.6 NW 9 12 1011.9 - 8.4 - - - - - - -
02/06:00am 22.0 NW 7 8 1011.7 - 8.4 - - - - - - -
02/05:30am 21.5 NW 7 8 1011.6 - 8.4 - - - - - - -
02/05:00am 21.2 NW 6 7 1011.3 - 8.4 - - - - - - -
02/04:30am 21.0 N 5 6 1010.8 - 8.4 - - - - - - -
02/04:00am 21.1 NNW 6 8 1010.6 - 8.4 - - - - - - -
02/03:30am 21.2 NNW 7 8 1010.5 - 8.4 - - - - - - -
02/03:00am 21.5 NNW 6 7 1010.3 - 8.4 - - - - - - -
02/02:30am 21.6 NW 6 7 1010.2 - 8.4 - - - - - - -
02/02:00am 21.3 NW 5 6 1010.2 - 8.4 - - - - - - -
02/01:30am 21.8 NW 5 7 1010.4 - 8.4 - - - - - - -
02/01:00am 21.8 NW 6 7 1010.5 - 8.4 - - - - - - -
02/12:30am 21.9 NW 6 7 1010.8 - 8.4 - - - - - - -
02/12:00am 21.9 NW 5 6 1011.1 - 8.4 - - - - - - -
 
Date/Time
EST
Temp
°C
Wind Pressure Rain since
9am
mm
Weather Cloud Vis
km
Sea
Height
m
Swell
Dir  Spd
kts
Gust
kts
hPa Trend Height
m
Period
s
Dir
01/11:30pm 22.1 NW 6 7 1011.2 - 8.4 - - - - - - -
01/11:00pm 22.3 NNW 7 8 1011.6 - 8.4 - - - - - - -
01/10:30pm 22.2 NNW 7 9 1011.8 - 8.4 - - - - - - -
01/10:00pm 22.4 NNW 7 10 1012.0 - 8.4 - - - - - - -
01/09:30pm 22.0 NNW 7 10 1012.1 - 8.4 - - - - - - -
01/09:00pm 21.8 NNW 5 7 1012.0 - 8.4 - - - - - - -
01/08:30pm 21.8 N 7 8 1011.8 - 8.4 - - - - - - -
01/08:00pm 21.8 N 7 13 1011.5 - 8.4 - - - - - - -
01/07:30pm 21.8 N 8 11 1011.1 - 8.4 - - - - - - -
01/07:00pm 21.9 N 14 17 1010.7 - 8.4 - - - - - - -
01/06:30pm 22.1 NNE 17 20 1010.2 - 8.4 - - - - - - -
01/06:00pm 22.3 NNE 18 20 1009.2 - 8.4 Recent precip. - - - - - -
01/05:30pm 21.9 ENE 13 16 1009.5 - 8.4 - - - - - - -
01/05:08pm 21.9 ENE 9 17 1009.9 - 7.8 - - - - - - -
01/05:00pm 22.8 WNW 7 15 1010.3 - 4.2 - - - - - - -
01/04:43pm 22.8 NE 9 16 1009.1 - 0.0 - - - - - - -
01/04:30pm 22.7 NNE 15 16 1006.7 - 0.0 - - - - - - -
01/04:00pm 22.7 NE 17 20 1007.0 - 0.0 - - - - - - -
01/03:30pm 23.4 NNE 17 19 1007.4 - 0.0 - - - - - - -
01/03:00pm 24.4 NNE 19 21 1007.2 - 0.0 - - - - - - -
01/02:30pm 26.0 NNE 19 22 1007.4 - 0.0 - - - - - - -
01/02:00pm 26.0 NNE 19 22 1008.2 - 0.0 - - - - - - -
01/01:30pm 26.9 NNE 20 22 1008.6 - 0.0 - - - - - - -
01/01:00pm 26.1 NNE 15 17 1009.4 - 0.0 - - - - - - -
01/12:30pm 26.3 NNE 15 16 1009.7 - 0.0 - - - - - - -
01/12:00pm 26.6 NNE 17 19 1009.7 - 0.0 - - - - - - -
01/11:30am 27.2 NNE 17 19 1010.3 - 0.0 - - - - - - -
01/11:00am 27.4 NNE 16 19 1010.6 - 0.0 - - - - - - -
01/10:30am 26.3 NNE 15 18 1011.2 - 0.0 - - - - - - -
01/10:00am 27.2 NNW 11 15 1011.6 - 0.0 - - - - - - -
01/09:30am 26.0 NNW 11 15 1011.8 - 0.0 - - - - - - -
01/09:00am 25.5 NNW 12 16 1012.0 - 1.8 - - - - - - -
01/08:30am 25.4 NNW 12 16 1011.7 - 1.8 - - - - - - -
01/08:00am 24.1 NNW 11 15 1011.8 - 1.8 - - - - - - -
01/07:30am 23.8 NW 12 18 1011.9 - 1.8 - - - - - - -
01/07:00am 23.2 NW 11 14 1011.8 - 1.8 - - - - - - -
01/06:30am 22.0 NW 8 9 1011.8 - 1.8 - - - - - - -
01/06:00am 20.9 NW 6 7 1011.5 - 1.8 - - - - - - -
01/05:30am 20.0 WNW 5 6 1011.2 - 1.8 - - - - - - -
01/05:00am 19.6 WNW 5 6 1010.9 - 1.8 - - - - - - -
01/04:30am 19.5 WNW 7 7 1010.7 - 1.8 - - - - - - -
01/04:00am 19.4 WNW 5 7 1010.8 - 1.8 - - - - - - -
01/03:30am 18.9 W 3 5 1010.6 - 1.8 - - - - - - -
01/03:00am 19.4 W 4 6 1010.5 - 1.6 - - - - - - -
01/02:30am 19.4 W 5 6 1010.7 - 1.6 - - - - - - -
01/02:00am 19.5 W 4 5 1010.9 - 1.6 - - - - - - -
01/01:30am 19.8 W 4 6 1010.9 - 1.6 - - - - - - -
01/01:00am 20.0 NW 2 5 1010.9 - 1.6 - - - - - - -
01/12:30am 19.9 SSE 1 5 1011.1 - 1.6 - - - - - - -
01/12:00am 20.4 S 3 5 1011.6 - 1.6 - - - - - - -
 
Date/Time
EST
Temp
°C
Wind Pressure Rain since
9am
mm
Weather Cloud Vis
km
Sea
Height
m
Swell
Dir  Spd
kts
Gust
kts
hPa Trend Height
m
Period
s
Dir
30/11:30pm 20.7 S 7 11 1012.6 - 1.6 - - - - - - -
30/11:00pm 20.6 WSW 7 9 1012.5 - 1.6 - - - - - - -
30/10:30pm 20.5 W 6 7 1011.9 - 1.6 - - - - - - -
30/10:00pm 20.9 W 5 6 1012.1 - 1.6 - - - - - - -
30/09:30pm 21.3 NW 6 7 1012.3 - 1.6 - - - - - - -

Other Formats:

Comma delimited format used in spreadsheet applications
http://www.bom.gov.au/fwo/IDQ60701/IDQ60701.94580.axf

JavaScript Object Notation format (JSON) in row-major order
http://www.bom.gov.au/fwo/IDQ60701/IDQ60701.94580.json